sensor_id;sensor_type;location;lat;lon;timestamp;temperature;humidity
24412;DHT22;12544;46.760;15.942;2022-12-11T00:00:15;3.20;99.90
24412;DHT22;12544;46.760;15.942;2022-12-11T00:02:41;3.20;99.90
24412;DHT22;12544;46.760;15.942;2022-12-11T00:05:07;3.20;99.90
24412;DHT22;12544;46.760;15.942;2022-12-11T00:07:33;3.30;99.90
24412;DHT22;12544;46.760;15.942;2022-12-11T00:09:59;3.30;99.90
24412;DHT22;12544;46.760;15.942;2022-12-11T00:12:24;3.30;99.90
24412;DHT22;12544;46.760;15.942;2022-12-11T00:14:50;3.30;99.90
24412;DHT22;12544;46.760;15.942;2022-12-11T00:17:15;3.30;99.90
24412;DHT22;12544;46.760;15.942;2022-12-11T00:19:41;3.30;99.90
24412;DHT22;12544;46.760;15.942;2022-12-11T00:22:07;3.30;99.90
24412;DHT22;12544;46.760;15.942;2022-12-11T00:24:32;3.30;99.90
24412;DHT22;12544;46.760;15.942;2022-12-11T00:26:58;3.20;99.90
24412;DHT22;12544;46.760;15.942;2022-12-11T00:29:24;3.10;99.90
24412;DHT22;12544;46.760;15.942;2022-12-11T00:31:49;3.10;99.90
24412;DHT22;12544;46.760;15.942;2022-12-11T00:34:15;3.00;99.90
24412;DHT22;12544;46.760;15.942;2022-12-11T00:36:40;3.00;99.90
24412;DHT22;12544;46.760;15.942;2022-12-11T00:39:06;3.10;99.90
24412;DHT22;12544;46.760;15.942;2022-12-11T00:41:44;3.00;99.90
24412;DHT22;12544;46.760;15.942;2022-12-11T00:44:09;3.00;99.90
24412;DHT22;12544;46.760;15.942;2022-12-11T00:46:35;3.00;99.90
24412;DHT22;12544;46.760;15.942;2022-12-11T00:49:01;2.90;99.90
24412;DHT22;12544;46.760;15.942;2022-12-11T00:51:26;2.90;99.90
24412;DHT22;12544;46.760;15.942;2022-12-11T00:53:58;2.80;99.90
24412;DHT22;12544;46.760;15.942;2022-12-11T00:56:23;2.80;99.90
24412;DHT22;12544;46.760;15.942;2022-12-11T00:58:49;2.90;99.90
24412;DHT22;12544;46.760;15.942;2022-12-11T01:01:18;2.90;99.90
24412;DHT22;12544;46.760;15.942;2022-12-11T01:03:44;2.80;99.90
24412;DHT22;12544;46.760;15.942;2022-12-11T01:06:15;2.90;99.90
24412;DHT22;12544;46.760;15.942;2022-12-11T01:08:42;3.00;99.90
24412;DHT22;12544;46.760;15.942;2022-12-11T01:11:11;3.00;99.90
24412;DHT22;12544;46.760;15.942;2022-12-11T01:13:38;3.00;99.90
24412;DHT22;12544;46.760;15.942;2022-12-11T01:16:09;3.00;99.90
24412;DHT22;12544;46.760;15.942;2022-12-11T01:18:44;3.00;99.90
24412;DHT22;12544;46.760;15.942;2022-12-11T01:21:11;3.10;99.90
24412;DHT22;12544;46.760;15.942;2022-12-11T01:23:38;3.10;99.90
24412;DHT22;12544;46.760;15.942;2022-12-11T01:26:09;3.10;99.90
24412;DHT22;12544;46.760;15.942;2022-12-11T01:28:36;3.10;99.90
24412;DHT22;12544;46.760;15.942;2022-12-11T01:31:02;3.10;99.90
24412;DHT22;12544;46.760;15.942;2022-12-11T01:33:32;3.10;99.90
24412;DHT22;12544;46.760;15.942;2022-12-11T01:35:58;3.10;99.90
24412;DHT22;12544;46.760;15.942;2022-12-11T01:38:23;3.10;99.90
24412;DHT22;12544;46.760;15.942;2022-12-11T01:40:50;3.00;99.90
24412;DHT22;12544;46.760;15.942;2022-12-11T01:43:16;3.00;99.90
24412;DHT22;12544;46.760;15.942;2022-12-11T01:45:43;3.00;99.90
24412;DHT22;12544;46.760;15.942;2022-12-11T01:48:29;3.00;99.90
24412;DHT22;12544;46.760;15.942;2022-12-11T01:51:02;3.00;99.90
24412;DHT22;12544;46.760;15.942;2022-12-11T01:53:32;3.00;99.90
24412;DHT22;12544;46.760;15.942;2022-12-11T01:55:58;3.00;99.90
24412;DHT22;12544;46.760;15.942;2022-12-11T01:58:31;3.00;99.90
24412;DHT22;12544;46.760;15.942;2022-12-11T02:00:59;2.90;99.90
24412;DHT22;12544;46.760;15.942;2022-12-11T02:03:26;2.90;99.90
24412;DHT22;12544;46.760;15.942;2022-12-11T02:05:57;2.90;99.90
24412;DHT22;12544;46.760;15.942;2022-12-11T02:08:23;2.90;99.90
24412;DHT22;12544;46.760;15.942;2022-12-11T02:11:32;2.90;99.90
24412;DHT22;12544;46.760;15.942;2022-12-11T02:13:59;2.90;99.90
24412;DHT22;12544;46.760;15.942;2022-12-11T02:16:37;2.90;99.90
24412;DHT22;12544;46.760;15.942;2022-12-11T02:22:02;2.90;99.90
24412;DHT22;12544;46.760;15.942;2022-12-11T02:30:22;2.90;99.90
24412;DHT22;12544;46.760;15.942;2022-12-11T02:32:52;3.00;99.90
24412;DHT22;12544;46.760;15.942;2022-12-11T02:35:29;2.90;99.90
24412;DHT22;12544;46.760;15.942;2022-12-11T02:37:58;3.00;99.90
24412;DHT22;12544;46.760;15.942;2022-12-11T02:40:29;3.00;99.90
24412;DHT22;12544;46.760;15.942;2022-12-11T02:42:57;3.00;99.90
24412;DHT22;12544;46.760;15.942;2022-12-11T02:45:26;3.00;99.90
24412;DHT22;12544;46.760;15.942;2022-12-11T02:47:53;3.10;99.90
24412;DHT22;12544;46.760;15.942;2022-12-11T02:50:21;3.10;99.90
24412;DHT22;12544;46.760;15.942;2022-12-11T02:52:49;3.10;99.90
24412;DHT22;12544;46.760;15.942;2022-12-11T02:55:17;3.10;99.90
24412;DHT22;12544;46.760;15.942;2022-12-11T02:57:55;3.20;99.90
24412;DHT22;12544;46.760;15.942;2022-12-11T03:00:24;3.20;99.90
24412;DHT22;12544;46.760;15.942;2022-12-11T03:02:49;3.20;99.90
24412;DHT22;12544;46.760;15.942;2022-12-11T03:05:15;3.20;99.90
24412;DHT22;12544;46.760;15.942;2022-12-11T03:07:42;3.20;99.90
24412;DHT22;12544;46.760;15.942;2022-12-11T03:10:14;3.30;99.90
24412;DHT22;12544;46.760;15.942;2022-12-11T03:12:42;3.30;99.90
24412;DHT22;12544;46.760;15.942;2022-12-11T03:15:14;3.30;99.90
24412;DHT22;12544;46.760;15.942;2022-12-11T03:17:58;3.30;99.90
24412;DHT22;12544;46.760;15.942;2022-12-11T03:20:42;3.20;99.90
24412;DHT22;12544;46.760;15.942;2022-12-11T03:26:02;3.20;99.90
24412;DHT22;12544;46.760;15.942;2022-12-11T03:28:34;3.20;99.90
24412;DHT22;12544;46.760;15.942;2022-12-11T03:31:06;3.20;99.90
24412;DHT22;12544;46.760;15.942;2022-12-11T03:33:45;3.20;99.90
24412;DHT22;12544;46.760;15.942;2022-12-11T03:36:33;3.20;99.90
24412;DHT22;12544;46.760;15.942;2022-12-11T03:39:18;3.10;99.90
24412;DHT22;12544;46.760;15.942;2022-12-11T03:41:47;3.00;99.90
24412;DHT22;12544;46.760;15.942;2022-12-11T03:44:15;3.00;99.90
24412;DHT22;12544;46.760;15.942;2022-12-11T03:46:43;3.00;99.90
24412;DHT22;12544;46.760;15.942;2022-12-11T03:49:18;3.00;99.90
24412;DHT22;12544;46.760;15.942;2022-12-11T03:51:46;3.00;99.90
24412;DHT22;12544;46.760;15.942;2022-12-11T03:54:13;3.00;99.90
24412;DHT22;12544;46.760;15.942;2022-12-11T03:56:39;2.90;99.90
24412;DHT22;12544;46.760;15.942;2022-12-11T03:59:07;3.00;99.90
24412;DHT22;12544;46.760;15.942;2022-12-11T04:01:33;3.00;99.90
24412;DHT22;12544;46.760;15.942;2022-12-11T04:03:59;3.00;99.90
24412;DHT22;12544;46.760;15.942;2022-12-11T04:06:31;3.10;99.90
24412;DHT22;12544;46.760;15.942;2022-12-11T04:08:57;3.10;99.90
24412;DHT22;12544;46.760;15.942;2022-12-11T04:11:22;3.00;99.90
24412;DHT22;12544;46.760;15.942;2022-12-11T04:14:11;3.00;99.90
24412;DHT22;12544;46.760;15.942;2022-12-11T04:16:57;3.00;99.90
24412;DHT22;12544;46.760;15.942;2022-12-11T04:19:24;3.10;99.90
24412;DHT22;12544;46.760;15.942;2022-12-11T04:22:11;3.10;99.90
24412;DHT22;12544;46.760;15.942;2022-12-11T04:24:39;2.80;99.90
24412;DHT22;12544;46.760;15.942;2022-12-11T04:27:05;2.70;99.90
24412;DHT22;12544;46.760;15.942;2022-12-11T04:29:31;2.70;99.90
24412;DHT22;12544;46.760;15.942;2022-12-11T04:31:56;2.80;99.90
24412;DHT22;12544;46.760;15.942;2022-12-11T04:34:22;2.90;99.90
24412;DHT22;12544;46.760;15.942;2022-12-11T04:36:48;2.90;99.90
24412;DHT22;12544;46.760;15.942;2022-12-11T04:39:13;3.00;99.90
24412;DHT22;12544;46.760;15.942;2022-12-11T04:41:39;3.10;99.90
24412;DHT22;12544;46.760;15.942;2022-12-11T04:44:06;3.10;99.90
24412;DHT22;12544;46.760;15.942;2022-12-11T04:46:32;3.00;99.90
24412;DHT22;12544;46.760;15.942;2022-12-11T04:48:58;3.00;99.90
24412;DHT22;12544;46.760;15.942;2022-12-11T04:51:25;2.90;99.90
24412;DHT22;12544;46.760;15.942;2022-12-11T04:53:52;2.90;99.90
24412;DHT22;12544;46.760;15.942;2022-12-11T04:56:18;2.90;99.90
24412;DHT22;12544;46.760;15.942;2022-12-11T04:58:44;2.90;99.90
24412;DHT22;12544;46.760;15.942;2022-12-11T05:01:13;3.00;99.90
24412;DHT22;12544;46.760;15.942;2022-12-11T05:03:39;3.10;99.90
24412;DHT22;12544;46.760;15.942;2022-12-11T05:06:06;3.10;99.90
24412;DHT22;12544;46.760;15.942;2022-12-11T05:08:34;3.10;99.90
24412;DHT22;12544;46.760;15.942;2022-12-11T05:11:02;3.10;99.90
24412;DHT22;12544;46.760;15.942;2022-12-11T05:13:29;3.10;99.90
24412;DHT22;12544;46.760;15.942;2022-12-11T05:15:55;3.10;99.90
24412;DHT22;12544;46.760;15.942;2022-12-11T05:18:21;3.10;99.90
24412;DHT22;12544;46.760;15.942;2022-12-11T05:20:57;3.00;99.90
24412;DHT22;12544;46.760;15.942;2022-12-11T05:23:24;3.00;99.90
24412;DHT22;12544;46.760;15.942;2022-12-11T05:26:00;3.00;99.90
24412;DHT22;12544;46.760;15.942;2022-12-11T05:28:31;3.00;99.90
24412;DHT22;12544;46.760;15.942;2022-12-11T05:31:00;3.00;99.90
24412;DHT22;12544;46.760;15.942;2022-12-11T05:33:27;3.10;99.90
24412;DHT22;12544;46.760;15.942;2022-12-11T05:35:53;3.10;99.90
24412;DHT22;12544;46.760;15.942;2022-12-11T05:38:18;3.10;99.90
24412;DHT22;12544;46.760;15.942;2022-12-11T05:40:44;3.10;99.90
24412;DHT22;12544;46.760;15.942;2022-12-11T05:43:10;3.10;99.90
24412;DHT22;12544;46.760;15.942;2022-12-11T05:45:35;3.10;99.90
24412;DHT22;12544;46.760;15.942;2022-12-11T05:48:01;3.10;99.90
24412;DHT22;12544;46.760;15.942;2022-12-11T05:50:27;3.20;99.90
24412;DHT22;12544;46.760;15.942;2022-12-11T05:52:52;3.10;99.90
24412;DHT22;12544;46.760;15.942;2022-12-11T05:55:18;3.10;99.90
24412;DHT22;12544;46.760;15.942;2022-12-11T05:57:44;3.10;99.90
24412;DHT22;12544;46.760;15.942;2022-12-11T06:00:11;3.10;99.90
24412;DHT22;12544;46.760;15.942;2022-12-11T06:02:36;3.00;99.90
24412;DHT22;12544;46.760;15.942;2022-12-11T06:05:02;3.00;99.90
24412;DHT22;12544;46.760;15.942;2022-12-11T06:07:28;2.90;99.90
24412;DHT22;12544;46.760;15.942;2022-12-11T06:09:53;2.90;99.90
24412;DHT22;12544;46.760;15.942;2022-12-11T06:12:19;2.80;99.90
24412;DHT22;12544;46.760;15.942;2022-12-11T06:14:45;2.70;99.90
24412;DHT22;12544;46.760;15.942;2022-12-11T06:17:10;2.70;99.90
24412;DHT22;12544;46.760;15.942;2022-12-11T06:19:37;2.70;99.90
24412;DHT22;12544;46.760;15.942;2022-12-11T06:22:03;2.70;99.90
24412;DHT22;12544;46.760;15.942;2022-12-11T06:24:29;2.80;99.90
24412;DHT22;12544;46.760;15.942;2022-12-11T06:26:55;2.80;99.90
24412;DHT22;12544;46.760;15.942;2022-12-11T06:29:20;2.90;99.90
24412;DHT22;12544;46.760;15.942;2022-12-11T06:31:46;2.90;99.90
24412;DHT22;12544;46.760;15.942;2022-12-11T06:34:12;2.90;99.90
24412;DHT22;12544;46.760;15.942;2022-12-11T06:36:38;2.90;99.90
24412;DHT22;12544;46.760;15.942;2022-12-11T06:39:04;3.00;99.90
24412;DHT22;12544;46.760;15.942;2022-12-11T06:41:30;3.10;99.90
24412;DHT22;12544;46.760;15.942;2022-12-11T06:43:55;2.90;99.90
24412;DHT22;12544;46.760;15.942;2022-12-11T06:46:21;2.80;99.90
24412;DHT22;12544;46.760;15.942;2022-12-11T06:48:47;2.80;99.90
24412;DHT22;12544;46.760;15.942;2022-12-11T06:51:16;2.80;99.90
24412;DHT22;12544;46.760;15.942;2022-12-11T06:53:42;2.90;99.90
24412;DHT22;12544;46.760;15.942;2022-12-11T06:56:11;2.90;99.90
24412;DHT22;12544;46.760;15.942;2022-12-11T06:58:37;3.00;99.90
24412;DHT22;12544;46.760;15.942;2022-12-11T07:01:11;3.00;99.90
24412;DHT22;12544;46.760;15.942;2022-12-11T07:03:37;3.00;99.90
24412;DHT22;12544;46.760;15.942;2022-12-11T07:06:03;3.00;99.90
24412;DHT22;12544;46.760;15.942;2022-12-11T07:08:29;3.00;99.90
24412;DHT22;12544;46.760;15.942;2022-12-11T07:11:04;3.00;99.90
24412;DHT22;12544;46.760;15.942;2022-12-11T07:13:31;3.00;99.90
24412;DHT22;12544;46.760;15.942;2022-12-11T07:15:57;3.00;99.90
24412;DHT22;12544;46.760;15.942;2022-12-11T07:18:25;2.90;99.90
24412;DHT22;12544;46.760;15.942;2022-12-11T07:20:51;2.90;99.90
24412;DHT22;12544;46.760;15.942;2022-12-11T07:23:16;2.90;99.90
24412;DHT22;12544;46.760;15.942;2022-12-11T07:25:42;2.90;99.90
24412;DHT22;12544;46.760;15.942;2022-12-11T07:28:07;2.90;99.90
24412;DHT22;12544;46.760;15.942;2022-12-11T07:30:33;3.00;99.90
24412;DHT22;12544;46.760;15.942;2022-12-11T07:32:59;2.90;99.90
24412;DHT22;12544;46.760;15.942;2022-12-11T07:35:24;3.00;99.90
24412;DHT22;12544;46.760;15.942;2022-12-11T07:37:52;3.00;99.90
24412;DHT22;12544;46.760;15.942;2022-12-11T07:40:18;2.90;99.90
24412;DHT22;12544;46.760;15.942;2022-12-11T07:42:43;2.90;99.90
24412;DHT22;12544;46.760;15.942;2022-12-11T07:45:09;2.90;99.90
24412;DHT22;12544;46.760;15.942;2022-12-11T07:47:35;2.80;99.90
24412;DHT22;12544;46.760;15.942;2022-12-11T07:50:00;2.80;99.90
24412;DHT22;12544;46.760;15.942;2022-12-11T07:52:26;2.80;99.90
24412;DHT22;12544;46.760;15.942;2022-12-11T07:54:52;2.90;99.90
24412;DHT22;12544;46.760;15.942;2022-12-11T07:57:17;2.90;99.90
24412;DHT22;12544;46.760;15.942;2022-12-11T07:59:43;3.00;99.90
24412;DHT22;12544;46.760;15.942;2022-12-11T08:02:10;3.10;99.90
24412;DHT22;12544;46.760;15.942;2022-12-11T08:04:36;3.20;99.90
24412;DHT22;12544;46.760;15.942;2022-12-11T08:07:02;3.20;99.90
24412;DHT22;12544;46.760;15.942;2022-12-11T08:09:27;3.20;99.90
24412;DHT22;12544;46.760;15.942;2022-12-11T08:11:54;3.20;99.90
24412;DHT22;12544;46.760;15.942;2022-12-11T08:14:20;3.30;99.90
24412;DHT22;12544;46.760;15.942;2022-12-11T08:16:46;3.40;99.90
24412;DHT22;12544;46.760;15.942;2022-12-11T08:19:13;3.30;99.90
24412;DHT22;12544;46.760;15.942;2022-12-11T08:21:39;3.30;99.90
24412;DHT22;12544;46.760;15.942;2022-12-11T08:24:05;3.40;99.90
24412;DHT22;12544;46.760;15.942;2022-12-11T08:26:31;3.40;99.90
24412;DHT22;12544;46.760;15.942;2022-12-11T08:28:57;3.50;99.90
24412;DHT22;12544;46.760;15.942;2022-12-11T08:31:24;3.50;99.90
24412;DHT22;12544;46.760;15.942;2022-12-11T08:33:51;3.50;99.90
24412;DHT22;12544;46.760;15.942;2022-12-11T08:36:19;3.60;99.90
24412;DHT22;12544;46.760;15.942;2022-12-11T08:38:49;3.60;99.90
24412;DHT22;12544;46.760;15.942;2022-12-11T08:41:21;3.70;99.90
24412;DHT22;12544;46.760;15.942;2022-12-11T08:43:47;3.80;99.90
24412;DHT22;12544;46.760;15.942;2022-12-11T08:46:13;3.80;99.90
24412;DHT22;12544;46.760;15.942;2022-12-11T08:48:41;3.80;99.90
24412;DHT22;12544;46.760;15.942;2022-12-11T08:51:25;3.90;99.90
24412;DHT22;12544;46.760;15.942;2022-12-11T08:53:54;3.90;99.90
24412;DHT22;12544;46.760;15.942;2022-12-11T08:56:21;4.00;99.90
24412;DHT22;12544;46.760;15.942;2022-12-11T08:58:48;3.90;99.90
24412;DHT22;12544;46.760;15.942;2022-12-11T09:01:19;4.00;99.90
24412;DHT22;12544;46.760;15.942;2022-12-11T09:03:49;3.90;99.90
24412;DHT22;12544;46.760;15.942;2022-12-11T09:06:17;3.90;99.90
24412;DHT22;12544;46.760;15.942;2022-12-11T09:08:44;3.90;99.90
24412;DHT22;12544;46.760;15.942;2022-12-11T09:11:14;3.90;99.90
24412;DHT22;12544;46.760;15.942;2022-12-11T09:13:41;3.90;99.90
24412;DHT22;12544;46.760;15.942;2022-12-11T09:16:09;3.90;99.90
24412;DHT22;12544;46.760;15.942;2022-12-11T09:18:37;4.00;99.90
24412;DHT22;12544;46.760;15.942;2022-12-11T09:21:11;4.00;99.90
24412;DHT22;12544;46.760;15.942;2022-12-11T09:23:38;4.00;99.90
24412;DHT22;12544;46.760;15.942;2022-12-11T09:26:05;4.10;99.90
24412;DHT22;12544;46.760;15.942;2022-12-11T09:28:31;4.10;99.90
24412;DHT22;12544;46.760;15.942;2022-12-11T09:30:57;4.00;99.90
24412;DHT22;12544;46.760;15.942;2022-12-11T09:33:23;4.00;99.90
24412;DHT22;12544;46.760;15.942;2022-12-11T09:36:05;4.10;99.90
24412;DHT22;12544;46.760;15.942;2022-12-11T09:38:31;4.10;99.90
24412;DHT22;12544;46.760;15.942;2022-12-11T09:40:58;4.10;99.90
24412;DHT22;12544;46.760;15.942;2022-12-11T09:43:44;4.10;99.90
24412;DHT22;12544;46.760;15.942;2022-12-11T09:46:13;4.20;99.90
24412;DHT22;12544;46.760;15.942;2022-12-11T09:48:45;4.20;99.90
24412;DHT22;12544;46.760;15.942;2022-12-11T09:51:38;4.30;99.90
24412;DHT22;12544;46.760;15.942;2022-12-11T09:54:08;4.40;99.90
24412;DHT22;12544;46.760;15.942;2022-12-11T09:56:42;4.40;99.90
24412;DHT22;12544;46.760;15.942;2022-12-11T10:09:54;4.50;99.90
24412;DHT22;12544;46.760;15.942;2022-12-11T10:12:57;4.50;99.90
24412;DHT22;12544;46.760;15.942;2022-12-11T10:18:16;4.50;99.90
24412;DHT22;12544;46.760;15.942;2022-12-11T10:20:44;4.50;99.90
24412;DHT22;12544;46.760;15.942;2022-12-11T10:23:18;4.60;99.90
24412;DHT22;12544;46.760;15.942;2022-12-11T10:25:57;4.50;99.90
24412;DHT22;12544;46.760;15.942;2022-12-11T10:28:27;4.60;99.90
24412;DHT22;12544;46.760;15.942;2022-12-11T10:31:18;4.50;99.90
24412;DHT22;12544;46.760;15.942;2022-12-11T10:36:36;4.60;99.90
24412;DHT22;12544;46.760;15.942;2022-12-11T10:39:08;4.60;99.90
24412;DHT22;12544;46.760;15.942;2022-12-11T10:41:41;4.60;99.90
24412;DHT22;12544;46.760;15.942;2022-12-11T10:44:21;4.60;99.90
24412;DHT22;12544;46.760;15.942;2022-12-11T10:47:09;4.60;99.90
24412;DHT22;12544;46.760;15.942;2022-12-11T10:49:36;4.50;99.90
24412;DHT22;12544;46.760;15.942;2022-12-11T10:52:25;4.50;99.90
24412;DHT22;12544;46.760;15.942;2022-12-11T10:55:01;4.50;99.90
24412;DHT22;12544;46.760;15.942;2022-12-11T10:57:30;4.50;99.90
24412;DHT22;12544;46.760;15.942;2022-12-11T10:59:57;4.50;99.90
24412;DHT22;12544;46.760;15.942;2022-12-11T11:02:43;4.60;99.90
24412;DHT22;12544;46.760;15.942;2022-12-11T11:05:15;4.70;99.90
24412;DHT22;12544;46.760;15.942;2022-12-11T11:07:41;4.70;99.90
24412;DHT22;12544;46.760;15.942;2022-12-11T11:12:46;4.70;99.90
24412;DHT22;12544;46.760;15.942;2022-12-11T11:15:19;4.60;99.90
24412;DHT22;12544;46.760;15.942;2022-12-11T11:17:52;4.60;99.90
24412;DHT22;12544;46.760;15.942;2022-12-11T11:20:20;4.60;99.90
24412;DHT22;12544;46.760;15.942;2022-12-11T11:22:49;4.50;99.90
24412;DHT22;12544;46.760;15.942;2022-12-11T11:25:21;4.60;99.90
24412;DHT22;12544;46.760;15.942;2022-12-11T11:27:59;4.50;99.90
24412;DHT22;12544;46.760;15.942;2022-12-11T11:30:33;4.50;99.90
24412;DHT22;12544;46.760;15.942;2022-12-11T11:33:13;4.60;99.90
24412;DHT22;12544;46.760;15.942;2022-12-11T11:35:54;4.60;99.90
24412;DHT22;12544;46.760;15.942;2022-12-11T11:38:22;4.60;99.90
24412;DHT22;12544;46.760;15.942;2022-12-11T11:43:44;4.70;99.90
24412;DHT22;12544;46.760;15.942;2022-12-11T11:51:39;4.90;99.90
24412;DHT22;12544;46.760;15.942;2022-12-11T11:54:34;4.90;99.90
24412;DHT22;12544;46.760;15.942;2022-12-11T11:57:11;5.00;99.90
24412;DHT22;12544;46.760;15.942;2022-12-11T11:59:45;5.00;99.90
24412;DHT22;12544;46.760;15.942;2022-12-11T12:02:16;5.00;99.90
24412;DHT22;12544;46.760;15.942;2022-12-11T12:04:45;5.00;99.90
24412;DHT22;12544;46.760;15.942;2022-12-11T12:15:27;4.90;99.90
24412;DHT22;12544;46.760;15.942;2022-12-11T12:28:47;4.80;99.90
24412;DHT22;12544;46.760;15.942;2022-12-11T12:37:10;4.60;99.90
24412;DHT22;12544;46.760;15.942;2022-12-11T12:39:46;4.60;99.90
24412;DHT22;12544;46.760;15.942;2022-12-11T12:45:06;4.50;99.90
24412;DHT22;12544;46.760;15.942;2022-12-11T12:47:35;4.60;99.90
24412;DHT22;12544;46.760;15.942;2022-12-11T12:50:02;4.60;99.90
24412;DHT22;12544;46.760;15.942;2022-12-11T12:52:34;4.70;99.90
24412;DHT22;12544;46.760;15.942;2022-12-11T12:55:19;4.80;99.90
24412;DHT22;12544;46.760;15.942;2022-12-11T12:57:56;4.90;99.90
24412;DHT22;12544;46.760;15.942;2022-12-11T13:00:26;4.90;99.90
24412;DHT22;12544;46.760;15.942;2022-12-11T13:02:52;4.90;99.90
24412;DHT22;12544;46.760;15.942;2022-12-11T13:05:26;4.80;99.90
24412;DHT22;12544;46.760;15.942;2022-12-11T13:07:55;4.80;99.90
24412;DHT22;12544;46.760;15.942;2022-12-11T13:10:36;4.80;99.90
24412;DHT22;12544;46.760;15.942;2022-12-11T13:13:04;4.80;99.90
24412;DHT22;12544;46.760;15.942;2022-12-11T13:15:39;4.80;99.90
24412;DHT22;12544;46.760;15.942;2022-12-11T13:18:33;4.80;99.90
24412;DHT22;12544;46.760;15.942;2022-12-11T13:21:01;4.80;99.90
24412;DHT22;12544;46.760;15.942;2022-12-11T13:23:30;4.80;99.90
24412;DHT22;12544;46.760;15.942;2022-12-11T13:26:02;4.70;99.90
24412;DHT22;12544;46.760;15.942;2022-12-11T13:28:44;4.70;99.90
24412;DHT22;12544;46.760;15.942;2022-12-11T13:34:20;4.70;99.90
24412;DHT22;12544;46.760;15.942;2022-12-11T13:36:49;4.80;99.90
24412;DHT22;12544;46.760;15.942;2022-12-11T13:39:24;4.80;99.90
24412;DHT22;12544;46.760;15.942;2022-12-11T13:41:56;4.80;99.90
24412;DHT22;12544;46.760;15.942;2022-12-11T13:44:29;4.80;99.90
24412;DHT22;12544;46.760;15.942;2022-12-11T13:46:57;4.90;99.90
24412;DHT22;12544;46.760;15.942;2022-12-11T13:49:44;4.80;99.90
24412;DHT22;12544;46.760;15.942;2022-12-11T13:52:17;4.90;99.90
24412;DHT22;12544;46.760;15.942;2022-12-11T13:54:49;4.90;99.90
24412;DHT22;12544;46.760;15.942;2022-12-11T13:57:20;4.90;99.90
24412;DHT22;12544;46.760;15.942;2022-12-11T13:59:49;4.80;99.90
24412;DHT22;12544;46.760;15.942;2022-12-11T14:04:54;4.80;99.90
24412;DHT22;12544;46.760;15.942;2022-12-11T14:07:27;4.80;99.90
24412;DHT22;12544;46.760;15.942;2022-12-11T14:10:03;4.80;99.90
24412;DHT22;12544;46.760;15.942;2022-12-11T14:12:30;4.80;99.90
24412;DHT22;12544;46.760;15.942;2022-12-11T14:14:58;4.80;99.90
24412;DHT22;12544;46.760;15.942;2022-12-11T14:17:29;4.80;99.90
24412;DHT22;12544;46.760;15.942;2022-12-11T14:19:58;4.80;99.90
24412;DHT22;12544;46.760;15.942;2022-12-11T14:22:26;4.90;99.90
24412;DHT22;12544;46.760;15.942;2022-12-11T14:24:54;4.80;99.90
24412;DHT22;12544;46.760;15.942;2022-12-11T14:27:21;4.80;99.90
24412;DHT22;12544;46.760;15.942;2022-12-11T14:29:47;4.80;99.90
24412;DHT22;12544;46.760;15.942;2022-12-11T14:32:35;4.80;99.90
24412;DHT22;12544;46.760;15.942;2022-12-11T14:35:04;4.80;99.90
24412;DHT22;12544;46.760;15.942;2022-12-11T14:37:31;4.80;99.90
24412;DHT22;12544;46.760;15.942;2022-12-11T14:42:28;4.80;99.90
24412;DHT22;12544;46.760;15.942;2022-12-11T14:45:04;4.70;99.90
24412;DHT22;12544;46.760;15.942;2022-12-11T14:47:37;4.70;99.90
24412;DHT22;12544;46.760;15.942;2022-12-11T14:50:46;4.60;99.90
24412;DHT22;12544;46.760;15.942;2022-12-11T14:53:18;4.60;99.90
24412;DHT22;12544;46.760;15.942;2022-12-11T14:55:47;4.50;99.90
24412;DHT22;12544;46.760;15.942;2022-12-11T14:58:19;4.40;99.90
24412;DHT22;12544;46.760;15.942;2022-12-11T15:00:59;4.40;99.90
24412;DHT22;12544;46.760;15.942;2022-12-11T15:03:33;4.40;99.90
24412;DHT22;12544;46.760;15.942;2022-12-11T15:06:00;4.30;99.90
24412;DHT22;12544;46.760;15.942;2022-12-11T15:08:36;4.30;99.90
24412;DHT22;12544;46.760;15.942;2022-12-11T15:11:06;4.20;99.90
24412;DHT22;12544;46.760;15.942;2022-12-11T15:13:35;4.20;99.90
24412;DHT22;12544;46.760;15.942;2022-12-11T15:16:02;4.10;99.90
24412;DHT22;12544;46.760;15.942;2022-12-11T15:18:36;4.00;99.90
24412;DHT22;12544;46.760;15.942;2022-12-11T15:21:07;3.90;99.90
24412;DHT22;12544;46.760;15.942;2022-12-11T15:23:55;3.90;99.90
24412;DHT22;12544;46.760;15.942;2022-12-11T15:27:05;3.80;99.90
24412;DHT22;12544;46.760;15.942;2022-12-11T15:34:57;3.40;99.90
24412;DHT22;12544;46.760;15.942;2022-12-11T15:37:30;3.30;99.90
24412;DHT22;12544;46.760;15.942;2022-12-11T15:39:58;3.10;99.90
24412;DHT22;12544;46.760;15.942;2022-12-11T15:42:29;3.00;99.90
24412;DHT22;12544;46.760;15.942;2022-12-11T15:44:58;3.00;99.90
24412;DHT22;12544;46.760;15.942;2022-12-11T15:47:28;2.90;99.90
24412;DHT22;12544;46.760;15.942;2022-12-11T15:49:58;2.70;99.90
24412;DHT22;12544;46.760;15.942;2022-12-11T15:52:24;2.60;99.90
24412;DHT22;12544;46.760;15.942;2022-12-11T15:54:50;2.50;99.90
24412;DHT22;12544;46.760;15.942;2022-12-11T15:57:22;2.30;99.90
24412;DHT22;12544;46.760;15.942;2022-12-11T15:59:50;2.20;99.90
24412;DHT22;12544;46.760;15.942;2022-12-11T16:02:17;2.30;99.90
24412;DHT22;12544;46.760;15.942;2022-12-11T16:04:43;2.20;99.90
24412;DHT22;12544;46.760;15.942;2022-12-11T16:07:20;2.10;99.90
24412;DHT22;12544;46.760;15.942;2022-12-11T16:09:47;2.00;99.90
24412;DHT22;12544;46.760;15.942;2022-12-11T16:12:14;2.10;99.90
24412;DHT22;12544;46.760;15.942;2022-12-11T16:14:40;2.00;99.90
24412;DHT22;12544;46.760;15.942;2022-12-11T16:17:08;2.00;99.90
24412;DHT22;12544;46.760;15.942;2022-12-11T16:19:34;2.10;99.90
24412;DHT22;12544;46.760;15.942;2022-12-11T16:22:00;2.10;99.90
24412;DHT22;12544;46.760;15.942;2022-12-11T16:24:26;2.10;99.90
24412;DHT22;12544;46.760;15.942;2022-12-11T16:26:52;2.20;99.90
24412;DHT22;12544;46.760;15.942;2022-12-11T16:29:17;2.20;99.90
24412;DHT22;12544;46.760;15.942;2022-12-11T16:31:43;2.20;99.90
24412;DHT22;12544;46.760;15.942;2022-12-11T16:34:09;2.20;99.90
24412;DHT22;12544;46.760;15.942;2022-12-11T16:36:36;2.00;99.90
24412;DHT22;12544;46.760;15.942;2022-12-11T16:39:02;1.90;99.90
24412;DHT22;12544;46.760;15.942;2022-12-11T16:41:28;1.90;99.90
24412;DHT22;12544;46.760;15.942;2022-12-11T16:43:54;1.90;99.90
24412;DHT22;12544;46.760;15.942;2022-12-11T16:46:21;1.90;99.90
24412;DHT22;12544;46.760;15.942;2022-12-11T16:48:47;1.70;99.90
24412;DHT22;12544;46.760;15.942;2022-12-11T16:51:13;1.70;99.90
24412;DHT22;12544;46.760;15.942;2022-12-11T16:53:39;1.60;99.90
24412;DHT22;12544;46.760;15.942;2022-12-11T16:56:15;1.60;99.90
24412;DHT22;12544;46.760;15.942;2022-12-11T16:58:40;1.60;99.90
24412;DHT22;12544;46.760;15.942;2022-12-11T17:01:10;1.50;99.90
24412;DHT22;12544;46.760;15.942;2022-12-11T17:03:46;1.50;99.90
24412;DHT22;12544;46.760;15.942;2022-12-11T17:06:13;1.50;99.90